createdAt,value
2023-03-07T00:01:09.752Z,26.23
2023-03-07T00:03:39.752Z,28.27
2023-03-07T00:06:08.828Z,28.05
2023-03-07T00:08:36.249Z,33.65
2023-03-07T00:11:08.593Z,27.52
2023-03-07T00:13:37.478Z,29.23
2023-03-07T00:16:10.606Z,29.65
2023-03-07T00:18:40.015Z,27.13
2023-03-07T00:21:08.858Z,29.52
2023-03-07T00:23:37.343Z,26.05
2023-03-07T00:26:11.745Z,28.67
2023-03-07T00:28:40.897Z,25.92
2023-03-07T00:31:10.665Z,27.88
2023-03-07T00:33:37.925Z,28.40
2023-03-07T00:36:06.448Z,30.48
2023-03-07T00:38:34.275Z,27.63
2023-03-07T00:41:06.698Z,28.35
2023-03-07T00:43:34.448Z,34.55
2023-03-07T00:46:01.337Z,32.97
2023-03-07T00:48:29.032Z,34.13
2023-03-07T00:50:56.698Z,30.77
2023-03-07T00:53:24.908Z,31.70
2023-03-07T00:55:55.693Z,28.13
2023-03-07T00:58:25.427Z,28.52
2023-03-07T01:00:52.230Z,30.67
2023-03-07T01:03:19.567Z,28.20
2023-03-07T01:05:49.030Z,28.95
2023-03-07T01:08:19.311Z,31.08
2023-03-07T01:10:48.555Z,32.20
2023-03-07T01:13:15.926Z,28.25
2023-03-07T01:15:42.603Z,32.00
2023-03-07T01:18:10.757Z,30.13
2023-03-07T01:20:39.359Z,31.50
2023-03-07T01:23:08.473Z,33.45
2023-03-07T01:25:42.230Z,32.33
2023-03-07T01:30:36.529Z,30.92
2023-03-07T01:33:03.905Z,36.85
2023-03-07T01:35:36.018Z,40.25
2023-03-07T01:38:05.324Z,37.20
2023-03-07T01:40:31.962Z,37.08
2023-03-07T01:43:28.612Z,41.35
2023-03-07T01:46:17.033Z,35.22
2023-03-07T01:49:07.313Z,35.08
2023-03-07T01:51:36.252Z,38.05
2023-03-07T01:54:06.540Z,42.30
2023-03-07T01:56:34.553Z,39.35
2023-03-07T01:59:04.146Z,41.70
2023-03-07T02:01:31.528Z,39.88
2023-03-07T02:04:04.062Z,33.97
2023-03-07T02:06:35.794Z,37.72
2023-03-07T02:09:03.073Z,39.38
2023-03-07T02:11:30.457Z,42.80
2023-03-07T02:13:57.066Z,36.83
2023-03-07T02:16:23.867Z,40.65
2023-03-07T02:18:50.631Z,39.03
2023-03-07T02:21:36.603Z,36.45
2023-03-07T02:24:32.057Z,36.70
2023-03-07T02:26:59.046Z,38.78
2023-03-07T02:29:25.751Z,40.80
2023-03-07T02:31:52.517Z,40.63
2023-03-07T02:34:24.612Z,47.45
2023-03-07T02:36:58.259Z,39.63
2023-03-07T02:39:30.047Z,41.92
2023-03-07T02:42:05.562Z,37.30
2023-03-07T02:44:32.240Z,47.58
2023-03-07T02:46:58.939Z,39.15
2023-03-07T02:49:25.608Z,42.67
2023-03-07T02:51:57.508Z,43.88
2023-03-07T02:54:25.157Z,40.67
2023-03-07T02:56:59.164Z,48.88
2023-03-07T02:59:28.322Z,41.17
2023-03-07T03:01:57.535Z,44.75
2023-03-07T03:04:24.550Z,41.50
2023-03-07T03:06:53.801Z,48.35
2023-03-07T03:09:20.724Z,41.10
2023-03-07T03:11:49.950Z,39.80
2023-03-07T03:14:16.736Z,46.67
2023-03-07T03:16:43.399Z,46.90
2023-03-07T03:19:10.115Z,42.97
2023-03-07T03:21:38.969Z,41.60
2023-03-07T03:24:09.265Z,41.75
2023-03-07T03:26:37.486Z,44.22
2023-03-07T03:29:05.407Z,40.65
2023-03-07T03:31:33.156Z,38.50
2023-03-07T03:34:02.818Z,49.45
2023-03-07T03:36:31.573Z,42.85
2023-03-07T03:39:03.752Z,38.92
2023-03-07T03:41:30.406Z,41.38
2023-03-07T03:43:57.544Z,39.15
2023-03-07T03:46:24.311Z,39.92
2023-03-07T03:48:54.738Z,45.03
2023-03-07T03:51:22.966Z,42.30
2023-03-07T03:53:50.825Z,40.10
2023-03-07T03:56:20.560Z,41.80
2023-03-07T03:58:48.998Z,44.70
2023-03-07T04:01:15.673Z,40.75
2023-03-07T04:03:44.945Z,36.58
2023-03-07T04:06:18.582Z,34.70
2023-03-07T04:08:48.638Z,35.67
2023-03-07T04:11:15.636Z,36.38
2023-03-07T04:13:42.570Z,35.38
2023-03-07T04:16:12.832Z,38.58
2023-03-07T04:18:40.077Z,34.42
2023-03-07T04:21:07.489Z,35.63
2023-03-07T04:23:34.653Z,40.15
2023-03-07T04:26:03.158Z,34.58
2023-03-07T04:28:45.376Z,34.60
2023-03-07T04:31:14.648Z,38.75
2023-03-07T04:33:42.017Z,32.67
2023-03-07T04:36:09.448Z,34.13
2023-03-07T04:38:39.191Z,37.70
2023-03-07T04:41:07.165Z,29.83
2023-03-07T04:43:36.104Z,36.90
2023-03-07T04:46:03.627Z,30.58
2023-03-07T04:48:30.435Z,30.40
2023-03-07T04:50:57.269Z,34.95
2023-03-07T04:53:23.977Z,31.70
2023-03-07T04:55:58.468Z,37.22
2023-03-07T04:58:25.614Z,32.50
2023-03-07T05:00:56.796Z,30.55
2023-03-07T05:03:24.930Z,30.60
2023-03-07T05:05:51.607Z,28.98
2023-03-07T05:08:18.465Z,34.33
2023-03-07T05:10:45.255Z,28.92
2023-03-07T05:13:12.257Z,27.98
2023-03-07T05:15:39.086Z,28.80
2023-03-07T05:18:06.832Z,26.55
2023-03-07T05:20:33.907Z,31.42
2023-03-07T05:23:00.794Z,30.77
2023-03-07T05:25:28.557Z,28.40
2023-03-07T05:27:55.289Z,26.08
2023-03-07T05:30:24.581Z,34.58
2023-03-07T05:32:51.477Z,26.67
2023-03-07T05:35:18.864Z,23.63
2023-03-07T05:37:45.664Z,26.45
2023-03-07T05:40:13.909Z,27.55
2023-03-07T05:42:43.293Z,26.67
2023-03-07T05:45:10.842Z,27.23
2023-03-07T05:47:38.921Z,27.35
2023-03-07T05:50:09.124Z,27.15
2023-03-07T05:52:35.836Z,24.90
2023-03-07T05:55:02.625Z,28.48
2023-03-07T05:57:31.750Z,26.75
2023-03-07T06:00:00.677Z,28.88
2023-03-07T06:02:27.496Z,26.02
2023-03-07T06:04:56.556Z,24.63
2023-03-07T06:07:27.013Z,24.83
2023-03-07T06:09:56.877Z,28.83
2023-03-07T06:12:23.580Z,26.13
2023-03-07T06:14:50.281Z,25.85
2023-03-07T06:17:16.932Z,24.52
2023-03-07T06:19:43.566Z,29.85
2023-03-07T06:22:12.512Z,27.27
2023-03-07T06:24:39.277Z,27.20
2023-03-07T06:27:06.146Z,25.13
2023-03-07T06:29:33.006Z,26.48
2023-03-07T06:31:59.852Z,28.98
2023-03-07T06:34:26.667Z,26.65
2023-03-07T06:36:57.850Z,28.00
2023-03-07T06:39:24.752Z,27.38
2023-03-07T06:41:51.688Z,26.05
2023-03-07T06:44:18.560Z,26.30
2023-03-07T06:46:46.017Z,25.70
2023-03-07T06:49:13.077Z,26.92
2023-03-07T06:51:44.828Z,28.85
2023-03-07T06:54:13.985Z,28.17
2023-03-07T06:56:40.748Z,20.95
2023-03-07T06:59:07.517Z,22.45
2023-03-07T07:01:35.649Z,24.98
2023-03-07T07:04:02.889Z,20.88
2023-03-07T07:06:30.087Z,26.50
2023-03-07T07:08:58.272Z,27.40
2023-03-07T07:11:26.313Z,24.00
2023-03-07T07:13:53.080Z,23.65
2023-03-07T07:16:19.874Z,21.08
2023-03-07T07:18:46.872Z,24.02
2023-03-07T07:21:13.524Z,22.70
2023-03-07T07:23:43.473Z,24.85
2023-03-07T07:26:10.310Z,24.65
2023-03-07T07:28:37.126Z,25.13
2023-03-07T07:31:06.014Z,25.02
2023-03-07T07:33:32.915Z,22.95
2023-03-07T07:35:59.739Z,24.20
2023-03-07T07:38:26.551Z,23.77
2023-03-07T07:40:53.319Z,21.92
2023-03-07T07:43:20.393Z,28.95
2023-03-07T07:45:49.538Z,24.38
2023-03-07T07:48:16.757Z,21.27
2023-03-07T07:50:43.474Z,23.35
2023-03-07T07:53:12.446Z,21.83
2023-03-07T07:55:43.981Z,22.17
2023-03-07T07:58:10.622Z,21.63
2023-03-07T08:00:39.359Z,25.25
2023-03-07T08:03:07.155Z,21.63
2023-03-07T08:05:33.915Z,24.00
2023-03-07T08:08:03.256Z,19.02
2023-03-07T08:10:29.970Z,21.05
2023-03-07T08:12:56.743Z,20.63
2023-03-07T08:15:23.596Z,20.73
2023-03-07T08:17:53.171Z,21.05
2023-03-07T08:20:22.253Z,21.75
2023-03-07T08:22:50.963Z,19.98
2023-03-07T08:25:21.798Z,27.92
2023-03-07T08:27:53.016Z,19.42
2023-03-07T08:30:19.918Z,20.10
2023-03-07T08:32:50.162Z,19.75
2023-03-07T08:35:17.475Z,20.38
2023-03-07T08:37:44.280Z,21.40
2023-03-07T08:40:14.468Z,20.52
2023-03-07T08:42:43.627Z,19.67
2023-03-07T08:45:10.689Z,21.25
2023-03-07T08:47:37.434Z,22.08
2023-03-07T08:50:05.603Z,19.55
2023-03-07T08:52:32.779Z,21.50
2023-03-07T08:54:59.384Z,23.02
2023-03-07T08:57:26.154Z,19.85
2023-03-07T08:59:52.905Z,17.65
2023-03-07T09:02:24.625Z,19.25
2023-03-07T09:04:51.490Z,20.67
2023-03-07T09:07:20.466Z,18.77
2023-03-07T09:09:49.625Z,18.48
2023-03-07T09:12:19.048Z,18.88
2023-03-07T09:14:47.959Z,22.08
2023-03-07T09:17:14.688Z,19.35
2023-03-07T09:19:43.082Z,20.45
2023-03-07T09:22:10.052Z,19.50
2023-03-07T09:24:38.962Z,19.73
2023-03-07T09:27:08.179Z,16.58
2023-03-07T09:29:34.948Z,19.75
2023-03-07T09:32:05.921Z,20.08
2023-03-07T09:34:32.733Z,17.20
2023-03-07T09:36:59.609Z,18.83
2023-03-07T09:39:26.300Z,17.35
2023-03-07T09:41:58.515Z,14.90
2023-03-07T09:45:02.017Z,23.65
2023-03-07T09:47:46.970Z,17.67
2023-03-07T09:50:20.012Z,15.40
2023-03-07T09:52:46.964Z,17.48
2023-03-07T09:55:19.298Z,19.88
2023-03-07T09:57:51.306Z,17.27
2023-03-07T10:00:45.953Z,16.77
2023-03-07T10:03:37.788Z,16.30
2023-03-07T10:06:30.489Z,14.93
2023-03-07T10:08:59.641Z,16.10
2023-03-07T10:11:37.441Z,16.13
2023-03-07T10:14:37.452Z,15.60
2023-03-07T10:17:22.161Z,16.52
2023-03-07T10:19:54.308Z,15.68
2023-03-07T10:22:51.394Z,14.40
2023-03-07T10:25:52.316Z,14.38
2023-03-07T10:28:36.469Z,14.30
2023-03-07T10:33:46.336Z,12.25
2023-03-07T10:36:38.320Z,15.82
2023-03-07T10:39:26.574Z,13.23
2023-03-07T10:41:54.527Z,14.82
2023-03-07T10:44:24.459Z,14.75
2023-03-07T10:47:00.565Z,12.80
2023-03-07T10:49:34.603Z,13.30
2023-03-07T10:52:31.771Z,13.48
2023-03-07T10:55:36.207Z,10.98
2023-03-07T10:58:23.933Z,14.10
2023-03-07T11:01:20.138Z,14.52
2023-03-07T11:03:59.681Z,14.50
2023-03-07T11:06:36.705Z,15.05
2023-03-07T11:09:27.818Z,10.25
2023-03-07T11:12:10.753Z,12.77
2023-03-07T11:14:47.832Z,11.55
2023-03-07T11:17:22.268Z,15.98
2023-03-07T11:19:56.263Z,12.50
2023-03-07T11:22:34.223Z,11.57
2023-03-07T11:25:13.974Z,10.43
2023-03-07T11:27:55.925Z,8.25
2023-03-07T11:30:47.718Z,15.15
2023-03-07T11:33:58.710Z,10.90
2023-03-07T11:36:36.655Z,10.23
2023-03-07T11:39:43.525Z,10.27
2023-03-07T11:42:23.936Z,10.80
2023-03-07T11:44:54.458Z,8.68
2023-03-07T11:47:24.564Z,10.32
2023-03-07T11:50:14.965Z,9.68
2023-03-07T11:53:10.728Z,9.52
2023-03-07T11:56:00.379Z,9.63
2023-03-07T11:58:39.374Z,10.52
2023-03-07T12:01:12.601Z,12.15
2023-03-07T12:04:19.924Z,14.60
2023-03-07T12:07:25.005Z,12.55
2023-03-07T12:09:58.059Z,12.85
2023-03-07T12:12:51.608Z,11.37
2023-03-07T12:15:37.346Z,14.17
2023-03-07T12:18:27.516Z,11.90
2023-03-07T12:21:11.761Z,14.85
2023-03-07T12:23:44.040Z,21.02
2023-03-07T12:26:22.826Z,15.10
2023-03-07T12:28:58.394Z,13.48
2023-03-07T12:31:34.060Z,12.95
2023-03-07T12:34:09.601Z,16.05
2023-03-07T12:36:48.146Z,15.45
2023-03-07T12:39:41.999Z,11.82
2023-03-07T12:42:31.947Z,11.35
2023-03-07T12:45:12.379Z,11.32
2023-03-07T12:48:02.249Z,13.77
2023-03-07T12:50:31.106Z,11.00
2023-03-07T12:53:41.440Z,12.73
2023-03-07T12:56:35.677Z,9.27
2023-03-07T12:59:14.782Z,10.65
2023-03-07T13:01:47.313Z,9.68
2023-03-07T13:04:16.622Z,10.90
2023-03-07T13:06:44.713Z,9.55
2023-03-07T13:09:21.805Z,11.23
2023-03-07T13:12:16.630Z,14.48
2023-03-07T13:14:53.708Z,12.10
2023-03-07T13:17:34.523Z,12.73
2023-03-07T13:20:19.411Z,10.48
2023-03-07T13:22:48.921Z,20.02
2023-03-07T13:26:03.486Z,11.00
2023-03-07T13:28:35.850Z,11.55
2023-03-07T13:31:20.235Z,12.05
2023-03-07T13:33:49.184Z,10.63
2023-03-07T13:36:32.173Z,11.10
2023-03-07T13:39:01.841Z,11.50
2023-03-07T13:41:49.288Z,10.07
2023-03-07T13:44:45.417Z,11.38
2023-03-07T13:47:49.596Z,11.63
2023-03-07T13:50:42.344Z,10.85
2023-03-07T13:53:15.693Z,11.93
2023-03-07T13:55:47.211Z,10.93
2023-03-07T13:58:18.128Z,8.88
2023-03-07T14:00:55.823Z,10.48
2023-03-07T14:03:27.981Z,9.13
2023-03-07T14:06:00.428Z,10.07
2023-03-07T14:08:30.306Z,11.80
2023-03-07T14:10:59.205Z,9.88
2023-03-07T14:14:05.045Z,13.10
2023-03-07T14:16:48.665Z,15.95
2023-03-07T14:19:42.792Z,12.90
2023-03-07T14:22:54.950Z,13.23
2023-03-07T14:25:36.270Z,12.13
2023-03-07T14:28:27.020Z,13.57
2023-03-07T14:31:05.488Z,15.15
2023-03-07T14:33:34.900Z,16.38
2023-03-07T14:36:04.622Z,11.35
2023-03-07T14:38:32.874Z,11.50
2023-03-07T14:41:21.542Z,10.63
2023-03-07T14:43:56.543Z,15.35
2023-03-07T14:46:41.617Z,12.43
2023-03-07T14:49:13.759Z,13.25
2023-03-07T14:51:41.934Z,19.88
2023-03-07T14:54:15.918Z,17.80
2023-03-07T14:56:48.557Z,12.15
2023-03-07T14:59:27.978Z,19.90
2023-03-07T15:01:56.376Z,15.93
2023-03-07T15:04:24.758Z,16.80
2023-03-07T15:06:57.372Z,17.45
2023-03-07T15:09:25.842Z,13.77
2023-03-07T15:12:20.356Z,14.15
2023-03-07T15:14:55.215Z,15.68
2023-03-07T15:17:27.929Z,13.55
2023-03-07T15:20:02.894Z,14.80
2023-03-07T15:22:39.195Z,14.60
2023-03-07T15:25:24.510Z,18.30
2023-03-07T15:28:04.483Z,14.55
2023-03-07T15:30:34.542Z,17.67
2023-03-07T15:33:28.880Z,15.40
2023-03-07T15:36:17.256Z,13.52
2023-03-07T15:38:52.283Z,17.70
2023-03-07T15:41:36.233Z,16.15
2023-03-07T15:44:03.884Z,15.05
2023-03-07T15:46:32.574Z,17.67
2023-03-07T15:49:01.466Z,13.52
2023-03-07T15:51:35.835Z,19.65
2023-03-07T15:54:20.643Z,14.05
2023-03-07T15:56:59.303Z,17.55
2023-03-07T15:59:33.357Z,15.48
2023-03-07T16:02:46.149Z,22.00
2023-03-07T16:05:22.877Z,19.25
2023-03-07T16:07:54.493Z,14.55
2023-03-07T16:10:25.395Z,13.02
2023-03-07T16:12:52.298Z,18.30
2023-03-07T16:15:22.063Z,13.63
2023-03-07T16:17:53.232Z,13.30
2023-03-07T16:20:22.167Z,12.10
2023-03-07T16:22:48.995Z,15.77
2023-03-07T16:25:16.590Z,18.70
2023-03-07T16:28:01.534Z,14.70
2023-03-07T16:30:33.030Z,16.55
2023-03-07T16:32:59.712Z,17.55
2023-03-07T16:35:28.210Z,12.45
2023-03-07T16:37:55.755Z,13.73
2023-03-07T16:40:26.173Z,10.35
2023-03-07T16:42:53.163Z,14.88
2023-03-07T16:45:28.711Z,17.15
2023-03-07T16:47:58.308Z,14.38
2023-03-07T16:50:31.978Z,16.05
2023-03-07T16:53:01.374Z,15.55
2023-03-07T16:55:28.336Z,12.57
2023-03-07T16:58:00.288Z,14.27
2023-03-07T17:00:28.167Z,20.23
2023-03-07T17:03:02.098Z,17.40
2023-03-07T17:05:30.431Z,12.90
2023-03-07T17:08:01.091Z,11.88
2023-03-07T17:10:28.447Z,13.93
2023-03-07T17:13:00.575Z,13.38
2023-03-07T17:15:30.972Z,15.13
2023-03-07T17:17:59.713Z,14.23
2023-03-07T17:20:27.083Z,11.73
2023-03-07T17:22:53.945Z,14.55
2023-03-07T17:25:23.956Z,14.38
2023-03-07T17:27:55.001Z,13.50
2023-03-07T17:30:24.883Z,14.82
2023-03-07T17:32:54.169Z,16.95
2023-03-07T17:35:21.135Z,15.85
2023-03-07T17:37:51.018Z,12.88
2023-03-07T17:40:20.799Z,14.65
2023-03-07T17:42:54.645Z,12.95
2023-03-07T17:47:53.978Z,14.45
2023-03-07T17:50:25.367Z,13.27
2023-03-07T17:52:53.992Z,16.27
2023-03-07T17:55:24.386Z,12.73
2023-03-07T17:57:53.753Z,12.80
2023-03-07T18:00:21.379Z,11.25
2023-03-07T18:02:49.059Z,16.45
2023-03-07T18:05:19.259Z,13.80
2023-03-07T18:07:46.874Z,14.25
2023-03-07T18:10:13.710Z,14.38
2023-03-07T18:12:40.660Z,12.25
2023-03-07T18:15:12.009Z,15.23
2023-03-07T18:17:47.834Z,13.13
2023-03-07T18:20:20.014Z,12.63
2023-03-07T18:22:47.469Z,13.07
2023-03-07T18:25:16.701Z,14.27
2023-03-07T18:27:44.750Z,12.85
2023-03-07T18:30:12.500Z,12.75
2023-03-07T18:32:39.444Z,13.35
2023-03-07T18:35:06.942Z,13.05
2023-03-07T18:37:36.487Z,10.77
2023-03-07T18:40:04.464Z,16.63
2023-03-07T18:42:31.204Z,18.15
2023-03-07T18:45:00.212Z,14.13
2023-03-07T18:47:26.975Z,11.00
2023-03-07T18:49:53.766Z,12.05
2023-03-07T18:52:22.852Z,15.27
2023-03-07T18:54:51.672Z,12.73
2023-03-07T18:57:18.341Z,13.43
2023-03-07T18:59:45.061Z,18.02
2023-03-07T19:02:14.329Z,14.50
2023-03-07T19:04:41.118Z,11.60
2023-03-07T19:07:10.110Z,13.15
2023-03-07T19:09:36.814Z,15.63
2023-03-07T19:12:03.575Z,12.27
2023-03-07T19:14:33.094Z,13.07
2023-03-07T19:17:00.007Z,14.55
2023-03-07T19:19:26.756Z,13.70
2023-03-07T19:21:53.509Z,11.38
2023-03-07T19:24:22.323Z,13.07
2023-03-07T19:26:52.024Z,12.90
2023-03-07T19:29:18.714Z,12.95
2023-03-07T19:31:48.261Z,14.00
2023-03-07T19:34:17.275Z,15.85
2023-03-07T19:36:46.185Z,13.13
2023-03-07T19:39:20.254Z,12.73
2023-03-07T19:41:48.071Z,14.02
2023-03-07T19:44:15.390Z,14.48
2023-03-07T19:46:46.207Z,11.40
2023-03-07T19:49:14.120Z,15.88
2023-03-07T19:51:40.847Z,12.80
2023-03-07T19:54:08.878Z,13.93
2023-03-07T19:56:38.516Z,14.43
2023-03-07T19:59:07.637Z,16.15
2023-03-07T20:01:35.143Z,16.05
2023-03-07T20:04:06.437Z,13.68
2023-03-07T20:06:33.496Z,14.13
2023-03-07T20:09:03.210Z,14.20
2023-03-07T20:11:32.804Z,12.20
2023-03-07T20:14:01.770Z,13.00
2023-03-07T20:16:29.344Z,14.50
2023-03-07T20:18:59.012Z,12.93
2023-03-07T20:21:28.370Z,12.23
2023-03-07T20:23:59.654Z,13.18
2023-03-07T20:26:37.899Z,13.52
2023-03-07T20:29:08.568Z,14.05
2023-03-07T20:31:36.299Z,14.70
2023-03-07T20:34:03.151Z,13.52
2023-03-07T20:36:32.798Z,12.80
2023-03-07T20:39:04.266Z,12.10
2023-03-07T20:41:33.785Z,18.52
2023-03-07T20:44:06.527Z,12.30
2023-03-07T20:46:33.942Z,13.27
2023-03-07T20:49:01.748Z,11.98
2023-03-07T20:51:31.438Z,12.77
2023-03-07T20:54:03.261Z,13.60
2023-03-07T20:56:32.647Z,12.30
2023-03-07T20:59:09.268Z,14.27
2023-03-07T21:01:36.500Z,12.10
2023-03-07T21:04:08.041Z,14.05
2023-03-07T21:06:36.526Z,12.50
2023-03-07T21:09:07.835Z,15.02
2023-03-07T21:11:44.965Z,13.27
2023-03-07T21:14:14.383Z,12.88
2023-03-07T21:16:41.276Z,11.90
2023-03-07T21:19:11.537Z,11.75
2023-03-07T21:21:39.233Z,11.68
2023-03-07T21:24:07.151Z,15.80
2023-03-07T21:26:38.451Z,14.13
2023-03-07T21:29:05.420Z,13.40
2023-03-07T21:31:40.107Z,13.07
2023-03-07T21:34:10.388Z,13.27
2023-03-07T21:36:39.768Z,12.85
2023-03-07T21:39:10.023Z,14.32
2023-03-07T21:41:39.377Z,12.75
2023-03-07T21:44:06.297Z,14.13
2023-03-07T21:46:35.675Z,11.15
2023-03-07T21:49:02.764Z,11.07
2023-03-07T21:51:31.724Z,10.75
2023-03-07T21:53:58.392Z,9.65
2023-03-07T21:56:25.810Z,13.32
2023-03-07T21:58:55.192Z,11.63
2023-03-07T22:01:25.146Z,12.98
2023-03-07T22:03:53.230Z,12.18
2023-03-07T22:06:20.124Z,11.60
2023-03-07T22:08:46.767Z,14.50
2023-03-07T22:11:13.975Z,14.88
2023-03-07T22:13:44.429Z,11.02
2023-03-07T22:16:17.205Z,12.63
2023-03-07T22:18:46.163Z,12.55
2023-03-07T22:21:14.986Z,12.25
2023-03-07T22:23:46.911Z,11.95
2023-03-07T22:26:13.965Z,10.75
2023-03-07T22:28:40.996Z,14.45
2023-03-07T22:31:13.288Z,12.40
2023-03-07T22:33:41.103Z,12.07
2023-03-07T22:36:10.952Z,12.57
2023-03-07T22:38:37.909Z,12.95
2023-03-07T22:41:07.392Z,13.57
2023-03-07T22:43:40.271Z,12.07
2023-03-07T22:46:07.487Z,12.53
2023-03-07T22:48:34.637Z,12.18
2023-03-07T22:51:04.106Z,13.65
2023-03-07T22:53:35.569Z,13.90
2023-03-07T22:56:02.251Z,12.50
2023-03-07T22:58:29.768Z,13.70
2023-03-07T23:00:56.503Z,11.82
2023-03-07T23:03:23.435Z,13.55
2023-03-07T23:05:50.613Z,13.90
2023-03-07T23:08:17.372Z,15.23
2023-03-07T23:10:44.086Z,18.00
2023-03-07T23:13:12.983Z,13.88
2023-03-07T23:15:41.568Z,15.85
2023-03-07T23:18:08.754Z,13.48
2023-03-07T23:20:39.486Z,14.07
2023-03-07T23:23:06.404Z,13.38
2023-03-07T23:25:33.289Z,12.48
2023-03-07T23:28:00.051Z,15.95
2023-03-07T23:30:26.759Z,16.02
2023-03-07T23:32:54.841Z,17.08
2023-03-07T23:35:21.613Z,12.75
2023-03-07T23:37:52.906Z,14.10
2023-03-07T23:40:19.922Z,14.52
2023-03-07T23:42:46.689Z,18.75
2023-03-07T23:45:13.377Z,16.30
2023-03-07T23:47:40.519Z,14.80
2023-03-07T23:50:08.322Z,16.63
2023-03-07T23:52:35.002Z,16.38
2023-03-07T23:55:01.665Z,12.90
2023-03-07T23:57:28.306Z,19.23
2023-03-07T23:59:57.240Z,15.55
